sensor_id;sensor_type;location;lat;lon;timestamp;temperature;humidity
20712;DHT22;10517;50.742;4.224;2022-09-24T00:01:48;14.10;99.90
20712;DHT22;10517;50.742;4.224;2022-09-24T00:04:14;14.10;99.90
20712;DHT22;10517;50.742;4.224;2022-09-24T00:06:45;14.10;99.90
20712;DHT22;10517;50.742;4.224;2022-09-24T00:09:14;14.10;99.90
20712;DHT22;10517;50.742;4.224;2022-09-24T00:11:41;14.10;99.90
20712;DHT22;10517;50.742;4.224;2022-09-24T00:14:08;14.20;99.90
20712;DHT22;10517;50.742;4.224;2022-09-24T00:16:34;14.10;99.90
20712;DHT22;10517;50.742;4.224;2022-09-24T00:19:01;14.20;99.90
20712;DHT22;10517;50.742;4.224;2022-09-24T00:21:32;14.20;99.90
20712;DHT22;10517;50.742;4.224;2022-09-24T00:24:02;14.10;99.90
20712;DHT22;10517;50.742;4.224;2022-09-24T00:26:28;14.20;99.90
20712;DHT22;10517;50.742;4.224;2022-09-24T00:29:18;14.30;99.90
20712;DHT22;10517;50.742;4.224;2022-09-24T00:31:44;14.30;99.90
20712;DHT22;10517;50.742;4.224;2022-09-24T00:34:10;14.30;99.90
20712;DHT22;10517;50.742;4.224;2022-09-24T00:36:36;14.30;99.90
20712;DHT22;10517;50.742;4.224;2022-09-24T00:39:02;14.40;99.90
20712;DHT22;10517;50.742;4.224;2022-09-24T00:41:31;14.50;99.90
20712;DHT22;10517;50.742;4.224;2022-09-24T00:43:57;14.30;99.90
20712;DHT22;10517;50.742;4.224;2022-09-24T00:49:19;14.10;99.90
20712;DHT22;10517;50.742;4.224;2022-09-24T00:51:47;14.00;99.90
20712;DHT22;10517;50.742;4.224;2022-09-24T00:54:26;14.10;99.90
20712;DHT22;10517;50.742;4.224;2022-09-24T00:56:53;14.00;99.90
20712;DHT22;10517;50.742;4.224;2022-09-24T00:59:21;14.10;99.90
20712;DHT22;10517;50.742;4.224;2022-09-24T01:01:49;14.10;99.90
20712;DHT22;10517;50.742;4.224;2022-09-24T01:04:17;14.00;99.90
20712;DHT22;10517;50.742;4.224;2022-09-24T01:06:49;14.10;99.90
20712;DHT22;10517;50.742;4.224;2022-09-24T01:09:17;14.10;99.90
20712;DHT22;10517;50.742;4.224;2022-09-24T01:12:05;14.10;99.90
20712;DHT22;10517;50.742;4.224;2022-09-24T01:15:23;14.10;99.90
20712;DHT22;10517;50.742;4.224;2022-09-24T01:17:38;14.00;99.90
20712;DHT22;10517;50.742;4.224;2022-09-24T01:31:37;14.10;99.90
20712;DHT22;10517;50.742;4.224;2022-09-24T01:34:05;14.00;99.90
20712;DHT22;10517;50.742;4.224;2022-09-24T01:36:35;14.10;99.90
20712;DHT22;10517;50.742;4.224;2022-09-24T01:39:05;14.10;99.90
20712;DHT22;10517;50.742;4.224;2022-09-24T01:41:33;14.10;99.90
20712;DHT22;10517;50.742;4.224;2022-09-24T01:44:00;14.10;99.90
20712;DHT22;10517;50.742;4.224;2022-09-24T01:46:29;14.00;99.90
20712;DHT22;10517;50.742;4.224;2022-09-24T01:48:56;14.10;99.90
20712;DHT22;10517;50.742;4.224;2022-09-24T01:51:27;14.10;99.90
20712;DHT22;10517;50.742;4.224;2022-09-24T01:54:02;14.10;99.90
20712;DHT22;10517;50.742;4.224;2022-09-24T01:56:36;14.10;99.90
20712;DHT22;10517;50.742;4.224;2022-09-24T01:59:09;14.10;99.90
20712;DHT22;10517;50.742;4.224;2022-09-24T02:01:41;14.00;99.90
20712;DHT22;10517;50.742;4.224;2022-09-24T02:04:12;14.10;99.90
20712;DHT22;10517;50.742;4.224;2022-09-24T02:06:51;14.20;99.90
20712;DHT22;10517;50.742;4.224;2022-09-24T02:09:37;14.10;99.90
20712;DHT22;10517;50.742;4.224;2022-09-24T02:12:26;14.10;99.90
20712;DHT22;10517;50.742;4.224;2022-09-24T02:17:37;14.00;99.90
20712;DHT22;10517;50.742;4.224;2022-09-24T02:20:10;14.00;99.90
20712;DHT22;10517;50.742;4.224;2022-09-24T02:22:37;14.00;99.90
20712;DHT22;10517;50.742;4.224;2022-09-24T02:25:05;14.00;99.90
20712;DHT22;10517;50.742;4.224;2022-09-24T02:27:33;14.10;99.90
20712;DHT22;10517;50.742;4.224;2022-09-24T02:29:59;14.10;99.90
20712;DHT22;10517;50.742;4.224;2022-09-24T02:32:28;14.10;99.90
20712;DHT22;10517;50.742;4.224;2022-09-24T02:34:58;14.10;99.90
20712;DHT22;10517;50.742;4.224;2022-09-24T02:37:27;14.10;99.90
20712;DHT22;10517;50.742;4.224;2022-09-24T02:39:53;14.30;99.90
20712;DHT22;10517;50.742;4.224;2022-09-24T02:42:20;14.30;99.90
20712;DHT22;10517;50.742;4.224;2022-09-24T02:44:46;14.30;99.90
20712;DHT22;10517;50.742;4.224;2022-09-24T02:47:12;14.30;99.90
20712;DHT22;10517;50.742;4.224;2022-09-24T02:49:38;14.20;99.90
20712;DHT22;10517;50.742;4.224;2022-09-24T02:52:03;14.20;99.90
20712;DHT22;10517;50.742;4.224;2022-09-24T02:54:29;14.20;99.90
20712;DHT22;10517;50.742;4.224;2022-09-24T02:56:55;14.20;99.90
20712;DHT22;10517;50.742;4.224;2022-09-24T02:59:21;14.10;99.90
20712;DHT22;10517;50.742;4.224;2022-09-24T03:01:47;14.10;99.90
20712;DHT22;10517;50.742;4.224;2022-09-24T03:04:13;14.20;99.90
20712;DHT22;10517;50.742;4.224;2022-09-24T03:06:38;14.20;99.90
20712;DHT22;10517;50.742;4.224;2022-09-24T03:09:04;14.20;99.90
20712;DHT22;10517;50.742;4.224;2022-09-24T03:11:30;14.30;99.90
20712;DHT22;10517;50.742;4.224;2022-09-24T03:13:57;14.30;99.90
20712;DHT22;10517;50.742;4.224;2022-09-24T03:16:23;14.20;99.90
20712;DHT22;10517;50.742;4.224;2022-09-24T03:18:49;14.20;99.90
20712;DHT22;10517;50.742;4.224;2022-09-24T03:21:17;14.20;99.90
20712;DHT22;10517;50.742;4.224;2022-09-24T03:23:43;14.10;99.90
20712;DHT22;10517;50.742;4.224;2022-09-24T03:26:09;14.10;99.90
20712;DHT22;10517;50.742;4.224;2022-09-24T03:28:34;14.20;99.90
20712;DHT22;10517;50.742;4.224;2022-09-24T03:31:00;14.10;99.90
20712;DHT22;10517;50.742;4.224;2022-09-24T03:33:46;14.20;99.90
20712;DHT22;10517;50.742;4.224;2022-09-24T03:36:21;14.20;99.90
20712;DHT22;10517;50.742;4.224;2022-09-24T03:38:52;14.20;99.90
20712;DHT22;10517;50.742;4.224;2022-09-24T03:41:22;14.20;99.90
20712;DHT22;10517;50.742;4.224;2022-09-24T03:43:48;14.30;99.90
20712;DHT22;10517;50.742;4.224;2022-09-24T03:46:14;14.30;99.90
20712;DHT22;10517;50.742;4.224;2022-09-24T03:48:42;14.20;99.90
20712;DHT22;10517;50.742;4.224;2022-09-24T03:51:10;14.10;99.90
20712;DHT22;10517;50.742;4.224;2022-09-24T03:53:35;14.00;99.90
20712;DHT22;10517;50.742;4.224;2022-09-24T03:56:01;14.00;99.90
20712;DHT22;10517;50.742;4.224;2022-09-24T03:58:27;14.00;99.90
20712;DHT22;10517;50.742;4.224;2022-09-24T04:00:54;14.00;99.90
20712;DHT22;10517;50.742;4.224;2022-09-24T04:03:23;14.00;99.90
20712;DHT22;10517;50.742;4.224;2022-09-24T04:05:49;14.10;99.90
20712;DHT22;10517;50.742;4.224;2022-09-24T04:08:21;14.10;99.90
20712;DHT22;10517;50.742;4.224;2022-09-24T04:10:49;14.10;99.90
20712;DHT22;10517;50.742;4.224;2022-09-24T04:13:15;14.00;99.90
20712;DHT22;10517;50.742;4.224;2022-09-24T04:15:41;14.00;99.90
20712;DHT22;10517;50.742;4.224;2022-09-24T04:18:07;14.00;99.90
20712;DHT22;10517;50.742;4.224;2022-09-24T04:20:33;14.00;99.90
20712;DHT22;10517;50.742;4.224;2022-09-24T04:22:59;14.00;99.90
20712;DHT22;10517;50.742;4.224;2022-09-24T04:25:27;14.00;99.90
20712;DHT22;10517;50.742;4.224;2022-09-24T04:27:58;14.00;99.90
20712;DHT22;10517;50.742;4.224;2022-09-24T04:30:25;14.00;99.90
20712;DHT22;10517;50.742;4.224;2022-09-24T04:32:51;13.90;99.90
20712;DHT22;10517;50.742;4.224;2022-09-24T04:35:18;13.90;99.90
20712;DHT22;10517;50.742;4.224;2022-09-24T04:37:45;14.00;99.90
20712;DHT22;10517;50.742;4.224;2022-09-24T04:40:11;14.00;99.90
20712;DHT22;10517;50.742;4.224;2022-09-24T04:42:38;14.00;99.90
20712;DHT22;10517;50.742;4.224;2022-09-24T04:45:06;14.00;99.90
20712;DHT22;10517;50.742;4.224;2022-09-24T04:47:32;14.00;99.90
20712;DHT22;10517;50.742;4.224;2022-09-24T04:49:58;14.10;99.90
20712;DHT22;10517;50.742;4.224;2022-09-24T04:52:26;14.00;99.90
20712;DHT22;10517;50.742;4.224;2022-09-24T04:54:54;14.00;99.90
20712;DHT22;10517;50.742;4.224;2022-09-24T04:57:22;13.90;99.90
20712;DHT22;10517;50.742;4.224;2022-09-24T04:59:48;13.80;99.90
20712;DHT22;10517;50.742;4.224;2022-09-24T05:02:13;13.80;99.90
20712;DHT22;10517;50.742;4.224;2022-09-24T05:04:39;13.80;99.90
20712;DHT22;10517;50.742;4.224;2022-09-24T05:07:04;13.80;99.90
20712;DHT22;10517;50.742;4.224;2022-09-24T05:09:30;13.80;99.90
20712;DHT22;10517;50.742;4.224;2022-09-24T05:12:00;13.80;99.90
20712;DHT22;10517;50.742;4.224;2022-09-24T05:14:26;13.90;99.90
20712;DHT22;10517;50.742;4.224;2022-09-24T05:16:51;13.90;99.90
20712;DHT22;10517;50.742;4.224;2022-09-24T05:19:17;13.90;99.90
20712;DHT22;10517;50.742;4.224;2022-09-24T05:21:43;14.00;99.90
20712;DHT22;10517;50.742;4.224;2022-09-24T05:24:09;13.90;99.90
20712;DHT22;10517;50.742;4.224;2022-09-24T05:26:34;13.90;99.90
20712;DHT22;10517;50.742;4.224;2022-09-24T05:29:18;13.90;99.90
20712;DHT22;10517;50.742;4.224;2022-09-24T05:31:44;13.90;99.90
20712;DHT22;10517;50.742;4.224;2022-09-24T05:34:10;13.80;99.90
20712;DHT22;10517;50.742;4.224;2022-09-24T05:36:35;13.80;99.90
20712;DHT22;10517;50.742;4.224;2022-09-24T05:39:01;13.80;99.90
20712;DHT22;10517;50.742;4.224;2022-09-24T05:41:27;13.80;99.90
20712;DHT22;10517;50.742;4.224;2022-09-24T05:43:52;13.80;99.90
20712;DHT22;10517;50.742;4.224;2022-09-24T05:46:19;13.90;99.90
20712;DHT22;10517;50.742;4.224;2022-09-24T05:48:44;13.90;99.90
20712;DHT22;10517;50.742;4.224;2022-09-24T05:51:10;14.00;99.90
20712;DHT22;10517;50.742;4.224;2022-09-24T05:53:35;14.00;99.90
20712;DHT22;10517;50.742;4.224;2022-09-24T05:56:01;14.00;99.90
20712;DHT22;10517;50.742;4.224;2022-09-24T05:58:26;14.10;99.90
20712;DHT22;10517;50.742;4.224;2022-09-24T06:00:52;14.10;99.90
20712;DHT22;10517;50.742;4.224;2022-09-24T06:03:18;14.10;99.90
20712;DHT22;10517;50.742;4.224;2022-09-24T06:05:46;14.10;99.90
20712;DHT22;10517;50.742;4.224;2022-09-24T06:08:13;14.10;99.90
20712;DHT22;10517;50.742;4.224;2022-09-24T06:10:40;14.00;99.90
20712;DHT22;10517;50.742;4.224;2022-09-24T06:13:07;14.10;99.90
20712;DHT22;10517;50.742;4.224;2022-09-24T06:15:33;14.00;99.90
20712;DHT22;10517;50.742;4.224;2022-09-24T06:18:00;14.10;99.90
20712;DHT22;10517;50.742;4.224;2022-09-24T06:20:26;14.10;99.90
20712;DHT22;10517;50.742;4.224;2022-09-24T06:22:54;14.10;99.90
20712;DHT22;10517;50.742;4.224;2022-09-24T06:25:22;14.20;99.90
20712;DHT22;10517;50.742;4.224;2022-09-24T06:27:56;14.20;99.90
20712;DHT22;10517;50.742;4.224;2022-09-24T06:30:29;14.20;99.90
20712;DHT22;10517;50.742;4.224;2022-09-24T06:33:01;14.20;99.90
20712;DHT22;10517;50.742;4.224;2022-09-24T06:35:32;14.10;99.90
20712;DHT22;10517;50.742;4.224;2022-09-24T06:37:58;14.20;99.90
20712;DHT22;10517;50.742;4.224;2022-09-24T06:40:24;14.20;99.90
20712;DHT22;10517;50.742;4.224;2022-09-24T06:42:57;14.30;99.90
20712;DHT22;10517;50.742;4.224;2022-09-24T06:45:23;14.30;99.90
20712;DHT22;10517;50.742;4.224;2022-09-24T06:47:53;14.40;99.90
20712;DHT22;10517;50.742;4.224;2022-09-24T06:50:23;14.40;99.90
20712;DHT22;10517;50.742;4.224;2022-09-24T06:52:49;14.30;99.90
20712;DHT22;10517;50.742;4.224;2022-09-24T06:55:15;14.30;99.90
20712;DHT22;10517;50.742;4.224;2022-09-24T06:57:42;14.30;99.90
20712;DHT22;10517;50.742;4.224;2022-09-24T07:00:12;14.30;99.90
20712;DHT22;10517;50.742;4.224;2022-09-24T07:02:38;14.40;99.90
20712;DHT22;10517;50.742;4.224;2022-09-24T07:05:05;14.50;99.90
20712;DHT22;10517;50.742;4.224;2022-09-24T07:07:30;14.50;99.90
20712;DHT22;10517;50.742;4.224;2022-09-24T07:10:04;14.50;99.90
20712;DHT22;10517;50.742;4.224;2022-09-24T07:12:31;14.50;99.90
20712;DHT22;10517;50.742;4.224;2022-09-24T07:14:57;14.60;99.90
20712;DHT22;10517;50.742;4.224;2022-09-24T07:17:24;14.50;99.90
20712;DHT22;10517;50.742;4.224;2022-09-24T07:19:50;14.40;99.90
20712;DHT22;10517;50.742;4.224;2022-09-24T07:22:16;14.40;99.90
20712;DHT22;10517;50.742;4.224;2022-09-24T07:24:42;14.40;99.90
20712;DHT22;10517;50.742;4.224;2022-09-24T07:27:07;14.40;99.90
20712;DHT22;10517;50.742;4.224;2022-09-24T07:29:34;14.30;99.90
20712;DHT22;10517;50.742;4.224;2022-09-24T07:32:00;14.40;99.90
20712;DHT22;10517;50.742;4.224;2022-09-24T07:34:27;14.40;99.90
20712;DHT22;10517;50.742;4.224;2022-09-24T07:36:54;14.50;99.90
20712;DHT22;10517;50.742;4.224;2022-09-24T07:39:21;14.50;99.90
20712;DHT22;10517;50.742;4.224;2022-09-24T07:41:46;14.60;99.90
20712;DHT22;10517;50.742;4.224;2022-09-24T07:44:12;14.70;99.90
20712;DHT22;10517;50.742;4.224;2022-09-24T07:46:38;14.80;99.90
20712;DHT22;10517;50.742;4.224;2022-09-24T07:49:03;14.80;99.90
20712;DHT22;10517;50.742;4.224;2022-09-24T07:51:30;14.90;99.90
20712;DHT22;10517;50.742;4.224;2022-09-24T07:53:56;14.80;99.90
20712;DHT22;10517;50.742;4.224;2022-09-24T07:56:23;14.90;99.90
20712;DHT22;10517;50.742;4.224;2022-09-24T07:58:50;15.00;99.90
20712;DHT22;10517;50.742;4.224;2022-09-24T08:01:17;15.10;99.90
20712;DHT22;10517;50.742;4.224;2022-09-24T08:03:46;15.20;99.90
20712;DHT22;10517;50.742;4.224;2022-09-24T08:06:12;15.30;99.90
20712;DHT22;10517;50.742;4.224;2022-09-24T08:08:38;15.30;99.90
20712;DHT22;10517;50.742;4.224;2022-09-24T08:11:05;15.40;99.90
20712;DHT22;10517;50.742;4.224;2022-09-24T08:13:31;15.50;99.90
20712;DHT22;10517;50.742;4.224;2022-09-24T08:15:57;15.50;99.90
20712;DHT22;10517;50.742;4.224;2022-09-24T08:18:26;15.60;99.90
20712;DHT22;10517;50.742;4.224;2022-09-24T08:20:53;15.70;99.90
20712;DHT22;10517;50.742;4.224;2022-09-24T08:23:18;15.70;99.90
20712;DHT22;10517;50.742;4.224;2022-09-24T08:25:45;15.90;99.90
20712;DHT22;10517;50.742;4.224;2022-09-24T08:28:11;15.90;99.90
20712;DHT22;10517;50.742;4.224;2022-09-24T08:30:38;16.00;99.90
20712;DHT22;10517;50.742;4.224;2022-09-24T08:33:06;16.10;99.90
20712;DHT22;10517;50.742;4.224;2022-09-24T08:35:33;16.10;99.90
20712;DHT22;10517;50.742;4.224;2022-09-24T08:37:59;16.10;99.90
20712;DHT22;10517;50.742;4.224;2022-09-24T08:40:28;16.10;99.90
20712;DHT22;10517;50.742;4.224;2022-09-24T08:43:04;16.10;99.90
20712;DHT22;10517;50.742;4.224;2022-09-24T08:45:41;16.10;99.90
20712;DHT22;10517;50.742;4.224;2022-09-24T08:48:30;16.20;99.90
20712;DHT22;10517;50.742;4.224;2022-09-24T08:51:06;16.00;99.90
20712;DHT22;10517;50.742;4.224;2022-09-24T08:53:50;16.00;99.90
20712;DHT22;10517;50.742;4.224;2022-09-24T08:56:21;15.90;99.90
20712;DHT22;10517;50.742;4.224;2022-09-24T08:59:00;15.80;99.90
20712;DHT22;10517;50.742;4.224;2022-09-24T09:01:44;15.70;99.90
20712;DHT22;10517;50.742;4.224;2022-09-24T09:09:48;15.70;99.90
20712;DHT22;10517;50.742;4.224;2022-09-24T09:12:29;15.60;99.90
20712;DHT22;10517;50.742;4.224;2022-09-24T09:17:40;15.60;99.90
20712;DHT22;10517;50.742;4.224;2022-09-24T09:20:20;15.60;99.90
20712;DHT22;10517;50.742;4.224;2022-09-24T09:22:48;15.60;99.90
20712;DHT22;10517;50.742;4.224;2022-09-24T09:25:23;15.70;99.90
20712;DHT22;10517;50.742;4.224;2022-09-24T09:28:10;15.60;99.90
20712;DHT22;10517;50.742;4.224;2022-09-24T09:33:38;15.60;99.90
20712;DHT22;10517;50.742;4.224;2022-09-24T09:42:29;15.70;99.90
20712;DHT22;10517;50.742;4.224;2022-09-24T09:45:02;15.70;99.90
20712;DHT22;10517;50.742;4.224;2022-09-24T09:47:39;15.80;99.90
20712;DHT22;10517;50.742;4.224;2022-09-24T09:52:48;16.10;99.90
20712;DHT22;10517;50.742;4.224;2022-09-24T09:55:22;16.40;99.90
20712;DHT22;10517;50.742;4.224;2022-09-24T09:57:50;16.70;99.90
20712;DHT22;10517;50.742;4.224;2022-09-24T10:00:31;16.80;99.90
20712;DHT22;10517;50.742;4.224;2022-09-24T10:02:58;17.00;99.90
20712;DHT22;10517;50.742;4.224;2022-09-24T10:05:24;16.90;99.90
20712;DHT22;10517;50.742;4.224;2022-09-24T10:07:56;16.90;99.90
20712;DHT22;10517;50.742;4.224;2022-09-24T10:10:27;17.00;99.90
20712;DHT22;10517;50.742;4.224;2022-09-24T10:13:07;17.00;99.90
20712;DHT22;10517;50.742;4.224;2022-09-24T10:16:01;16.90;99.90
20712;DHT22;10517;50.742;4.224;2022-09-24T10:20:54;16.80;99.90
20712;DHT22;10517;50.742;4.224;2022-09-24T10:23:31;16.80;99.90
20712;DHT22;10517;50.742;4.224;2022-09-24T10:26:00;16.80;99.90
20712;DHT22;10517;50.742;4.224;2022-09-24T10:28:27;16.70;99.90
20712;DHT22;10517;50.742;4.224;2022-09-24T10:33:38;16.40;99.90
20712;DHT22;10517;50.742;4.224;2022-09-24T10:36:11;16.30;99.90
20712;DHT22;10517;50.742;4.224;2022-09-24T10:38:37;16.30;99.90
20712;DHT22;10517;50.742;4.224;2022-09-24T10:41:21;16.30;99.90
20712;DHT22;10517;50.742;4.224;2022-09-24T10:43:52;16.30;99.90
20712;DHT22;10517;50.742;4.224;2022-09-24T10:52:32;16.50;99.90
20712;DHT22;10517;50.742;4.224;2022-09-24T10:57:56;16.50;99.90
20712;DHT22;10517;50.742;4.224;2022-09-24T11:00:43;16.40;99.90
20712;DHT22;10517;50.742;4.224;2022-09-24T11:12:17;16.70;99.90
20712;DHT22;10517;50.742;4.224;2022-09-24T11:28:06;17.30;99.90
20712;DHT22;10517;50.742;4.224;2022-09-24T11:31:06;17.30;99.90
20712;DHT22;10517;50.742;4.224;2022-09-24T11:44:45;17.00;99.90
20712;DHT22;10517;50.742;4.224;2022-09-24T11:47:39;17.10;99.90
20712;DHT22;10517;50.742;4.224;2022-09-24T11:52:58;17.20;99.90
20712;DHT22;10517;50.742;4.224;2022-09-24T11:55:32;17.30;99.90
20712;DHT22;10517;50.742;4.224;2022-09-24T11:58:17;17.60;99.90
20712;DHT22;10517;50.742;4.224;2022-09-24T12:03:20;17.90;99.90
20712;DHT22;10517;50.742;4.224;2022-09-24T12:05:55;17.90;99.90
20712;DHT22;10517;50.742;4.224;2022-09-24T12:08:40;17.80;99.90
20712;DHT22;10517;50.742;4.224;2022-09-24T12:13:51;17.60;99.90
20712;DHT22;10517;50.742;4.224;2022-09-24T12:16:25;17.50;99.90
20712;DHT22;10517;50.742;4.224;2022-09-24T12:19:07;17.50;99.90
20712;DHT22;10517;50.742;4.224;2022-09-24T12:21:40;17.40;99.90
20712;DHT22;10517;50.742;4.224;2022-09-24T12:26:46;17.10;99.90
20712;DHT22;10517;50.742;4.224;2022-09-24T12:32:17;17.00;99.90
20712;DHT22;10517;50.742;4.224;2022-09-24T12:38:17;17.10;99.90
20712;DHT22;10517;50.742;4.224;2022-09-24T12:46:12;17.20;99.90
20712;DHT22;10517;50.742;4.224;2022-09-24T12:48:42;17.20;99.90
20712;DHT22;10517;50.742;4.224;2022-09-24T12:51:09;17.20;99.90
20712;DHT22;10517;50.742;4.224;2022-09-24T12:53:37;17.20;99.90
20712;DHT22;10517;50.742;4.224;2022-09-24T12:56:05;17.40;99.90
20712;DHT22;10517;50.742;4.224;2022-09-24T12:58:43;17.30;99.90
20712;DHT22;10517;50.742;4.224;2022-09-24T13:04:25;17.20;99.90
20712;DHT22;10517;50.742;4.224;2022-09-24T13:06:51;17.30;99.90
20712;DHT22;10517;50.742;4.224;2022-09-24T13:09:32;17.20;99.90
20712;DHT22;10517;50.742;4.224;2022-09-24T13:14:41;17.00;99.90
20712;DHT22;10517;50.742;4.224;2022-09-24T13:17:11;17.00;99.90
20712;DHT22;10517;50.742;4.224;2022-09-24T13:19:40;17.00;99.90
20712;DHT22;10517;50.742;4.224;2022-09-24T13:22:24;17.10;99.90
20712;DHT22;10517;50.742;4.224;2022-09-24T13:24:52;17.20;99.90
20712;DHT22;10517;50.742;4.224;2022-09-24T13:32:33;17.00;99.90
20712;DHT22;10517;50.742;4.224;2022-09-24T13:35:08;16.90;99.90
20712;DHT22;10517;50.742;4.224;2022-09-24T13:37:40;16.60;99.90
20712;DHT22;10517;50.742;4.224;2022-09-24T13:40:21;16.20;99.90
20712;DHT22;10517;50.742;4.224;2022-09-24T13:42:54;15.90;99.90
20712;DHT22;10517;50.742;4.224;2022-09-24T13:45:23;15.90;99.90
20712;DHT22;10517;50.742;4.224;2022-09-24T13:48:03;16.00;99.90
20712;DHT22;10517;50.742;4.224;2022-09-24T13:50:36;16.00;99.90
20712;DHT22;10517;50.742;4.224;2022-09-24T13:53:23;15.80;99.90
20712;DHT22;10517;50.742;4.224;2022-09-24T13:55:56;15.70;99.90
20712;DHT22;10517;50.742;4.224;2022-09-24T14:00:56;15.50;99.90
20712;DHT22;10517;50.742;4.224;2022-09-24T14:03:29;15.50;99.90
20712;DHT22;10517;50.742;4.224;2022-09-24T14:05:58;15.40;99.90
20712;DHT22;10517;50.742;4.224;2022-09-24T14:08:24;15.30;99.90
20712;DHT22;10517;50.742;4.224;2022-09-24T14:11:02;15.30;99.90
20712;DHT22;10517;50.742;4.224;2022-09-24T14:13:27;15.40;99.90
20712;DHT22;10517;50.742;4.224;2022-09-24T14:15:59;15.30;99.90
20712;DHT22;10517;50.742;4.224;2022-09-24T14:18:26;15.30;99.90
20712;DHT22;10517;50.742;4.224;2022-09-24T14:23:25;15.20;99.90
20712;DHT22;10517;50.742;4.224;2022-09-24T14:25:54;15.20;99.90
20712;DHT22;10517;50.742;4.224;2022-09-24T14:28:20;15.20;99.90
20712;DHT22;10517;50.742;4.224;2022-09-24T14:30:54;15.10;99.90
20712;DHT22;10517;50.742;4.224;2022-09-24T14:33:23;14.90;99.90
20712;DHT22;10517;50.742;4.224;2022-09-24T14:35:52;15.00;99.90
20712;DHT22;10517;50.742;4.224;2022-09-24T14:38:28;14.90;99.90
20712;DHT22;10517;50.742;4.224;2022-09-24T14:41:01;15.10;99.90
20712;DHT22;10517;50.742;4.224;2022-09-24T14:43:36;15.00;99.90
20712;DHT22;10517;50.742;4.224;2022-09-24T14:46:17;14.90;99.90
20712;DHT22;10517;50.742;4.224;2022-09-24T14:48:45;15.00;99.90
20712;DHT22;10517;50.742;4.224;2022-09-24T14:54:01;15.10;99.90
20712;DHT22;10517;50.742;4.224;2022-09-24T14:56:32;15.20;99.90
20712;DHT22;10517;50.742;4.224;2022-09-24T14:58:58;15.30;99.90
20712;DHT22;10517;50.742;4.224;2022-09-24T15:01:32;15.30;99.90
20712;DHT22;10517;50.742;4.224;2022-09-24T15:04:01;15.30;99.90
20712;DHT22;10517;50.742;4.224;2022-09-24T15:06:32;15.10;99.90
20712;DHT22;10517;50.742;4.224;2022-09-24T15:11:26;15.10;99.90
20712;DHT22;10517;50.742;4.224;2022-09-24T15:16:33;15.20;99.90
20712;DHT22;10517;50.742;4.224;2022-09-24T15:19:22;15.10;99.90
20712;DHT22;10517;50.742;4.224;2022-09-24T15:21:49;15.20;99.90
20712;DHT22;10517;50.742;4.224;2022-09-24T15:24:16;15.10;99.90
20712;DHT22;10517;50.742;4.224;2022-09-24T15:26:47;15.10;99.90
20712;DHT22;10517;50.742;4.224;2022-09-24T15:29:18;15.20;99.90
20712;DHT22;10517;50.742;4.224;2022-09-24T15:31:45;15.30;99.90
20712;DHT22;10517;50.742;4.224;2022-09-24T15:34:11;15.30;99.90
20712;DHT22;10517;50.742;4.224;2022-09-24T15:36:37;15.10;99.90
20712;DHT22;10517;50.742;4.224;2022-09-24T15:39:04;15.10;99.90
20712;DHT22;10517;50.742;4.224;2022-09-24T15:41:29;15.00;99.90
20712;DHT22;10517;50.742;4.224;2022-09-24T15:43:56;14.80;99.90
20712;DHT22;10517;50.742;4.224;2022-09-24T15:46:22;14.80;99.90
20712;DHT22;10517;50.742;4.224;2022-09-24T15:48:48;14.80;99.90
20712;DHT22;10517;50.742;4.224;2022-09-24T15:51:16;14.80;99.90
20712;DHT22;10517;50.742;4.224;2022-09-24T15:53:43;14.70;99.90
20712;DHT22;10517;50.742;4.224;2022-09-24T15:56:09;14.70;99.90
20712;DHT22;10517;50.742;4.224;2022-09-24T15:58:36;14.60;99.90
20712;DHT22;10517;50.742;4.224;2022-09-24T16:01:02;14.50;99.90
20712;DHT22;10517;50.742;4.224;2022-09-24T16:03:29;14.40;99.90
20712;DHT22;10517;50.742;4.224;2022-09-24T16:05:56;14.40;99.90
20712;DHT22;10517;50.742;4.224;2022-09-24T16:08:24;14.40;99.90
20712;DHT22;10517;50.742;4.224;2022-09-24T16:10:50;14.40;99.90
20712;DHT22;10517;50.742;4.224;2022-09-24T16:13:16;14.50;99.90
20712;DHT22;10517;50.742;4.224;2022-09-24T16:15:43;14.50;99.90
20712;DHT22;10517;50.742;4.224;2022-09-24T16:18:12;14.40;99.90
20712;DHT22;10517;50.742;4.224;2022-09-24T16:20:39;14.40;99.90
20712;DHT22;10517;50.742;4.224;2022-09-24T16:23:06;14.30;99.90
20712;DHT22;10517;50.742;4.224;2022-09-24T16:25:34;14.30;99.90
20712;DHT22;10517;50.742;4.224;2022-09-24T16:28:00;14.30;99.90
20712;DHT22;10517;50.742;4.224;2022-09-24T16:30:25;14.20;99.90
20712;DHT22;10517;50.742;4.224;2022-09-24T16:32:51;14.20;99.90
20712;DHT22;10517;50.742;4.224;2022-09-24T16:35:17;14.10;99.90
20712;DHT22;10517;50.742;4.224;2022-09-24T16:37:43;14.10;99.90
20712;DHT22;10517;50.742;4.224;2022-09-24T16:40:09;14.10;99.90
20712;DHT22;10517;50.742;4.224;2022-09-24T16:42:35;14.00;99.90
20712;DHT22;10517;50.742;4.224;2022-09-24T16:45:00;14.00;99.90
20712;DHT22;10517;50.742;4.224;2022-09-24T16:47:26;13.90;99.90
20712;DHT22;10517;50.742;4.224;2022-09-24T16:49:52;13.90;99.90
20712;DHT22;10517;50.742;4.224;2022-09-24T16:52:17;13.80;99.90
20712;DHT22;10517;50.742;4.224;2022-09-24T16:54:43;13.80;99.90
20712;DHT22;10517;50.742;4.224;2022-09-24T16:57:08;13.80;99.90
20712;DHT22;10517;50.742;4.224;2022-09-24T16:59:34;13.80;99.90
20712;DHT22;10517;50.742;4.224;2022-09-24T17:02:00;13.80;99.90
20712;DHT22;10517;50.742;4.224;2022-09-24T17:04:26;13.80;99.90
20712;DHT22;10517;50.742;4.224;2022-09-24T17:06:53;13.80;99.90
20712;DHT22;10517;50.742;4.224;2022-09-24T17:09:19;13.70;99.90
20712;DHT22;10517;50.742;4.224;2022-09-24T17:12:03;13.70;99.90
20712;DHT22;10517;50.742;4.224;2022-09-24T17:14:29;13.70;99.90
20712;DHT22;10517;50.742;4.224;2022-09-24T17:16:55;13.70;99.90
20712;DHT22;10517;50.742;4.224;2022-09-24T17:19:20;13.60;99.90
20712;DHT22;10517;50.742;4.224;2022-09-24T17:21:46;13.60;99.90
20712;DHT22;10517;50.742;4.224;2022-09-24T17:24:15;13.60;99.90
20712;DHT22;10517;50.742;4.224;2022-09-24T17:26:41;13.60;99.90
20712;DHT22;10517;50.742;4.224;2022-09-24T17:29:06;13.50;99.90
20712;DHT22;10517;50.742;4.224;2022-09-24T17:31:32;13.60;99.90
20712;DHT22;10517;50.742;4.224;2022-09-24T17:34:04;13.60;99.90
20712;DHT22;10517;50.742;4.224;2022-09-24T17:36:32;13.60;99.90
20712;DHT22;10517;50.742;4.224;2022-09-24T17:38:58;13.60;99.90
20712;DHT22;10517;50.742;4.224;2022-09-24T17:41:25;13.60;99.90
20712;DHT22;10517;50.742;4.224;2022-09-24T17:43:51;13.60;99.90
20712;DHT22;10517;50.742;4.224;2022-09-24T17:46:21;13.50;99.90
20712;DHT22;10517;50.742;4.224;2022-09-24T17:48:49;13.50;99.90
20712;DHT22;10517;50.742;4.224;2022-09-24T17:51:16;13.50;99.90
20712;DHT22;10517;50.742;4.224;2022-09-24T17:53:44;13.50;99.90
20712;DHT22;10517;50.742;4.224;2022-09-24T17:56:11;13.60;99.90